createdAt,value
2022-09-27T00:00:05.302Z,61.21
2022-09-27T00:02:39.031Z,61.79
2022-09-27T00:05:06.162Z,61.85
2022-09-27T00:07:33.228Z,61.35
2022-09-27T00:09:59.969Z,61.51
2022-09-27T00:12:26.730Z,61.49
2022-09-27T00:14:53.415Z,61.69
2022-09-27T00:17:20.089Z,62.13
2022-09-27T00:19:46.755Z,61.74
2022-09-27T00:22:13.501Z,62.28
2022-09-27T00:24:40.152Z,63.04
2022-09-27T00:27:06.844Z,62.42
2022-09-27T00:29:33.663Z,62.30
2022-09-27T00:32:00.540Z,62.63
2022-09-27T00:34:27.354Z,62.75
2022-09-27T00:36:55.593Z,62.80
2022-09-27T00:39:22.283Z,63.07
2022-09-27T00:41:48.991Z,62.91
2022-09-27T00:44:24.873Z,63.23
2022-09-27T00:47:07.917Z,63.33
2022-09-27T00:49:41.410Z,62.99
2022-09-27T00:52:17.745Z,63.00
2022-09-27T00:54:46.661Z,62.79
2022-09-27T00:57:13.410Z,62.01
2022-09-27T00:59:48.801Z,62.31
2022-09-27T01:02:15.823Z,62.26
2022-09-27T01:04:43.500Z,61.76
2022-09-27T01:07:10.171Z,61.74
2022-09-27T01:09:36.906Z,62.73
2022-09-27T01:12:37.165Z,62.18
2022-09-27T01:15:13.357Z,62.41
2022-09-27T01:17:43.635Z,61.81
2022-09-27T01:20:31.403Z,61.79
2022-09-27T01:23:26.904Z,62.18
2022-09-27T01:26:14.611Z,62.39
2022-09-27T01:28:57.435Z,62.40
2022-09-27T01:31:59.576Z,63.06
2022-09-27T01:34:34.620Z,63.12
2022-09-27T01:37:22.610Z,63.53
2022-09-27T01:40:03.069Z,63.62
2022-09-27T01:42:55.763Z,63.71
2022-09-27T01:45:32.895Z,62.81
2022-09-27T01:48:22.316Z,62.43
2022-09-27T01:51:04.532Z,62.34
2022-09-27T01:53:34.883Z,62.00
2022-09-27T01:56:35.183Z,61.73
2022-09-27T01:59:20.255Z,61.84
2022-09-27T02:01:59.864Z,62.30
2022-09-27T02:04:34.035Z,62.85
2022-09-27T02:07:14.814Z,61.92
2022-09-27T02:09:47.994Z,62.40
2022-09-27T02:12:21.908Z,62.36
2022-09-27T02:14:54.608Z,61.65
2022-09-27T02:17:33.212Z,61.34
2022-09-27T02:20:40.320Z,62.51
2022-09-27T02:23:23.262Z,62.58
2022-09-27T02:26:00.637Z,62.84
2022-09-27T02:28:31.268Z,62.54
2022-09-27T02:30:58.275Z,63.04
2022-09-27T02:33:35.294Z,63.35
2022-09-27T02:36:02.406Z,63.03
2022-09-27T02:38:29.575Z,63.28
2022-09-27T02:40:58.323Z,62.90
2022-09-27T02:43:29.708Z,62.49
2022-09-27T02:46:20.595Z,62.63
2022-09-27T02:49:04.111Z,62.36
2022-09-27T02:51:49.555Z,63.22
2022-09-27T02:54:26.773Z,63.60
2022-09-27T02:57:35.236Z,63.49
2022-09-27T03:00:44.783Z,64.21
2022-09-27T03:03:52.759Z,64.18
2022-09-27T03:06:21.024Z,63.96
2022-09-27T03:08:47.959Z,63.35
2022-09-27T03:11:14.873Z,63.23
2022-09-27T03:14:06.965Z,62.90
2022-09-27T03:16:31.306Z,63.12
2022-09-27T03:19:10.458Z,63.11
2022-09-27T03:22:00.496Z,62.91
2022-09-27T03:24:27.649Z,63.57
2022-09-27T03:26:54.302Z,63.86
2022-09-27T03:29:20.994Z,64.29
2022-09-27T03:31:53.459Z,65.85
2022-09-27T03:34:39.908Z,66.89
2022-09-27T03:37:07.262Z,67.51
2022-09-27T03:39:34.584Z,67.95
2022-09-27T03:42:01.254Z,67.95
2022-09-27T03:44:28.070Z,68.64
2022-09-27T03:46:54.727Z,68.85
2022-09-27T03:49:21.454Z,68.77
2022-09-27T03:51:48.161Z,68.69
2022-09-27T03:54:15.331Z,69.00
2022-09-27T03:56:41.987Z,69.38
2022-09-27T03:59:08.701Z,69.09
2022-09-27T04:01:56.402Z,70.34
2022-09-27T04:04:43.513Z,70.45
2022-09-27T04:07:10.793Z,69.76
2022-09-27T04:09:41.241Z,70.22
2022-09-27T04:12:11.777Z,70.39
2022-09-27T04:14:38.558Z,70.61
2022-09-27T04:17:25.809Z,70.00
2022-09-27T04:20:11.662Z,69.59
2022-09-27T04:22:44.181Z,69.37
2022-09-27T04:25:11.645Z,69.35
2022-09-27T04:27:45.620Z,70.58
2022-09-27T04:30:13.282Z,71.27
2022-09-27T04:32:58.458Z,71.39
2022-09-27T04:36:12.921Z,72.13
2022-09-27T04:38:48.176Z,71.94
2022-09-27T04:41:21.980Z,72.84
2022-09-27T04:43:48.671Z,72.33
2022-09-27T04:46:15.867Z,72.47
2022-09-27T04:48:42.855Z,72.35
2022-09-27T04:51:10.219Z,72.16
2022-09-27T04:53:37.088Z,72.79
2022-09-27T04:56:06.076Z,73.30
2022-09-27T04:58:34.391Z,72.80
2022-09-27T05:01:03.619Z,74.08
2022-09-27T05:03:49.019Z,74.73
2022-09-27T05:06:16.155Z,75.15
2022-09-27T05:08:43.417Z,75.49
2022-09-27T05:11:19.073Z,75.31
2022-09-27T05:14:05.532Z,76.79
2022-09-27T05:16:40.683Z,77.91
2022-09-27T05:19:36.552Z,79.43
2022-09-27T05:22:11.673Z,80.54
2022-09-27T05:24:39.341Z,80.33
2022-09-27T05:27:08.745Z,80.67
2022-09-27T05:29:35.769Z,80.61
2022-09-27T05:32:25.288Z,80.44
2022-09-27T05:35:06.242Z,80.96
2022-09-27T05:37:34.265Z,80.98
2022-09-27T05:40:08.526Z,81.00
2022-09-27T05:42:43.885Z,80.32
2022-09-27T05:45:10.851Z,80.48
2022-09-27T05:47:37.540Z,80.49
2022-09-27T05:50:04.370Z,81.17
2022-09-27T05:52:31.069Z,81.42
2022-09-27T05:54:58.444Z,80.84
2022-09-27T05:57:25.244Z,80.62
2022-09-27T05:59:54.211Z,81.17
2022-09-27T06:02:21.015Z,80.55
2022-09-27T06:05:09.288Z,80.05
2022-09-27T06:07:41.982Z,80.45
2022-09-27T06:10:14.911Z,79.05
2022-09-27T06:12:42.367Z,80.02
2022-09-27T06:15:21.965Z,79.49
2022-09-27T06:17:48.687Z,79.62
2022-09-27T06:20:21.411Z,80.67
2022-09-27T06:22:48.363Z,81.93
2022-09-27T06:25:18.720Z,82.13
2022-09-27T06:28:12.152Z,82.23
2022-09-27T06:30:41.527Z,82.31
2022-09-27T06:33:23.022Z,83.33
2022-09-27T06:35:51.542Z,83.34
2022-09-27T06:38:21.270Z,83.82
2022-09-27T06:41:03.636Z,83.24
2022-09-27T06:43:38.621Z,83.03
2022-09-27T06:46:14.116Z,82.17
2022-09-27T06:48:49.751Z,82.61
2022-09-27T06:51:18.562Z,82.52
2022-09-27T06:53:45.291Z,83.01
2022-09-27T06:56:12.745Z,82.73
2022-09-27T06:59:07.152Z,83.20
2022-09-27T07:01:53.940Z,83.84
2022-09-27T07:04:26.553Z,83.64
2022-09-27T07:07:13.987Z,84.11
2022-09-27T07:09:44.801Z,84.83
2022-09-27T07:12:13.652Z,84.64
2022-09-27T07:14:44.140Z,85.03
2022-09-27T07:17:14.135Z,84.52
2022-09-27T07:19:43.904Z,84.34
2022-09-27T07:22:11.946Z,84.92
2022-09-27T07:24:40.309Z,85.34
2022-09-27T07:27:07.154Z,84.92
2022-09-27T07:29:34.117Z,84.50
2022-09-27T07:32:01.367Z,84.77
2022-09-27T07:34:28.278Z,85.21
2022-09-27T07:37:03.473Z,85.39
2022-09-27T07:39:32.265Z,85.47
2022-09-27T07:42:02.468Z,85.63
2022-09-27T07:44:29.159Z,84.92
2022-09-27T07:47:14.119Z,84.59
2022-09-27T07:49:59.239Z,84.49
2022-09-27T07:52:46.553Z,84.43
2022-09-27T07:55:32.382Z,84.52
2022-09-27T07:58:12.372Z,83.76
2022-09-27T08:00:40.944Z,84.18
2022-09-27T08:03:16.260Z,84.03
2022-09-27T08:05:44.676Z,83.75
2022-09-27T08:08:11.828Z,83.06
2022-09-27T08:10:42.318Z,82.24
2022-09-27T08:13:09.224Z,82.59
2022-09-27T08:15:39.258Z,83.21
2022-09-27T08:18:07.917Z,83.30
2022-09-27T08:21:10.198Z,82.91
2022-09-27T08:23:50.315Z,83.62
2022-09-27T08:26:23.663Z,84.09
2022-09-27T08:28:53.532Z,83.82
2022-09-27T08:31:25.673Z,83.00
2022-09-27T08:33:55.109Z,83.43
2022-09-27T08:36:24.320Z,83.49
2022-09-27T08:38:51.870Z,83.13
2022-09-27T08:41:39.986Z,83.26
2022-09-27T08:44:30.163Z,83.42
2022-09-27T08:47:17.380Z,83.53
2022-09-27T08:50:10.451Z,83.78
2022-09-27T08:52:43.728Z,84.32
2022-09-27T08:55:28.986Z,84.82
2022-09-27T08:57:57.850Z,85.00
2022-09-27T09:00:28.175Z,84.85
2022-09-27T09:02:57.214Z,84.24
2022-09-27T09:05:31.000Z,84.48
2022-09-27T09:08:18.464Z,84.05
2022-09-27T09:11:08.383Z,83.85
2022-09-27T09:13:53.947Z,83.25
2022-09-27T09:16:47.447Z,83.30
2022-09-27T09:20:12.233Z,83.59
2022-09-27T09:23:00.741Z,83.95
2022-09-27T09:25:46.109Z,83.29
2022-09-27T09:28:54.283Z,82.25
2022-09-27T09:31:48.050Z,81.86
2022-09-27T09:34:23.211Z,81.85
2022-09-27T09:36:57.319Z,82.06
2022-09-27T09:39:28.944Z,82.24
2022-09-27T09:42:05.054Z,82.20
2022-09-27T09:44:41.503Z,81.86
2022-09-27T09:47:15.768Z,82.15
2022-09-27T09:49:48.583Z,82.41
2022-09-27T09:52:20.948Z,81.88
2022-09-27T09:55:04.368Z,81.84
2022-09-27T09:57:39.187Z,81.67
2022-09-27T10:00:15.544Z,81.96
2022-09-27T10:02:50.125Z,81.90
2022-09-27T10:05:22.537Z,81.89
2022-09-27T10:07:59.382Z,81.60
2022-09-27T10:10:26.216Z,81.87
2022-09-27T10:13:04.829Z,81.84
2022-09-27T10:15:36.985Z,81.04
2022-09-27T10:18:04.350Z,80.59
2022-09-27T10:20:40.227Z,80.27
2022-09-27T10:23:15.498Z,79.57
2022-09-27T10:26:00.780Z,79.19
2022-09-27T10:28:39.200Z,78.65
2022-09-27T10:31:18.345Z,78.26
2022-09-27T10:33:59.946Z,77.77
2022-09-27T10:36:36.668Z,76.73
2022-09-27T10:39:05.732Z,76.55
2022-09-27T10:41:42.023Z,76.25
2022-09-27T10:44:16.142Z,76.08
2022-09-27T10:46:45.370Z,77.12
2022-09-27T10:49:37.090Z,77.94
2022-09-27T10:52:22.896Z,78.63
2022-09-27T10:54:54.757Z,78.84
2022-09-27T10:57:27.117Z,79.04
2022-09-27T10:59:59.445Z,78.77
2022-09-27T11:02:31.142Z,79.12
2022-09-27T11:05:15.254Z,79.83
2022-09-27T11:07:53.067Z,80.05
2022-09-27T11:10:42.446Z,80.39
2022-09-27T11:13:13.214Z,79.97
2022-09-27T11:16:41.696Z,80.38
2022-09-27T11:19:30.593Z,80.05
2022-09-27T11:22:16.743Z,79.82
2022-09-27T11:24:48.508Z,80.17
2022-09-27T11:27:47.944Z,79.53
2022-09-27T11:30:21.491Z,78.72
2022-09-27T11:33:20.483Z,77.23
2022-09-27T11:35:59.968Z,76.88
2022-09-27T11:39:12.451Z,76.88
2022-09-27T11:41:45.082Z,76.70
2022-09-27T11:44:21.362Z,77.66
2022-09-27T11:46:57.588Z,77.47
2022-09-27T11:49:43.541Z,78.00
2022-09-27T11:52:20.877Z,78.45
2022-09-27T11:55:09.490Z,78.74
2022-09-27T11:57:44.964Z,78.63
2022-09-27T12:00:24.308Z,79.00
2022-09-27T12:03:38.246Z,79.23
2022-09-27T12:06:13.762Z,79.03
2022-09-27T12:09:06.898Z,78.74
2022-09-27T12:11:46.228Z,78.72
2022-09-27T12:14:37.848Z,79.45
2022-09-27T12:17:13.146Z,80.50
2022-09-27T12:19:48.606Z,81.00
2022-09-27T12:22:53.847Z,80.71
2022-09-27T12:25:20.823Z,81.17
2022-09-27T12:28:00.310Z,81.53
2022-09-27T12:30:27.265Z,81.26
2022-09-27T12:33:06.342Z,80.67
2022-09-27T12:35:40.139Z,80.45
2022-09-27T12:38:14.752Z,79.86
2022-09-27T12:40:45.520Z,79.49
2022-09-27T12:43:19.777Z,79.90
2022-09-27T12:46:17.944Z,80.18
2022-09-27T12:48:50.772Z,79.88
2022-09-27T12:51:22.384Z,79.81
2022-09-27T12:54:12.701Z,79.28
2022-09-27T12:56:57.099Z,78.15
2022-09-27T12:59:54.046Z,77.35
2022-09-27T13:03:14.582Z,77.91
2022-09-27T13:05:58.687Z,78.08
2022-09-27T13:08:34.483Z,78.72
2022-09-27T13:11:12.750Z,78.66
2022-09-27T13:13:40.014Z,78.54
2022-09-27T13:16:09.581Z,78.44
2022-09-27T13:18:54.102Z,78.29
2022-09-27T13:21:49.281Z,77.92
2022-09-27T13:24:39.389Z,77.43
2022-09-27T13:27:23.570Z,77.38
2022-09-27T13:29:51.544Z,76.73
2022-09-27T13:32:23.342Z,76.60
2022-09-27T13:35:24.700Z,77.00
2022-09-27T13:38:07.135Z,76.61
2022-09-27T13:40:42.157Z,76.59
2022-09-27T13:43:12.112Z,76.19
2022-09-27T13:46:08.027Z,76.09
2022-09-27T13:48:50.713Z,74.17
2022-09-27T13:51:35.828Z,74.00
2022-09-27T13:54:27.327Z,74.69
2022-09-27T13:56:56.282Z,74.44
2022-09-27T13:59:49.307Z,74.57
2022-09-27T14:02:41.822Z,75.15
2022-09-27T14:05:13.001Z,73.45
2022-09-27T14:07:42.031Z,75.05
2022-09-27T14:10:18.393Z,75.16
2022-09-27T14:12:46.444Z,75.67
2022-09-27T14:15:19.994Z,75.57
2022-09-27T14:17:47.148Z,75.84
2022-09-27T14:20:38.522Z,76.08
2022-09-27T14:23:16.101Z,75.98
2022-09-27T14:25:51.094Z,75.37
2022-09-27T14:28:27.706Z,75.90
2022-09-27T14:31:17.902Z,75.68
2022-09-27T14:34:08.994Z,75.44
2022-09-27T14:36:56.613Z,75.90
2022-09-27T14:39:32.672Z,75.54
2022-09-27T14:42:05.636Z,75.76
2022-09-27T14:44:33.451Z,75.73
2022-09-27T14:47:20.284Z,76.05
2022-09-27T14:49:48.944Z,76.16
2022-09-27T14:52:28.595Z,76.02
2022-09-27T14:55:00.253Z,75.72
2022-09-27T14:57:30.276Z,75.65
2022-09-27T14:59:58.273Z,75.47
2022-09-27T15:02:26.482Z,75.40
2022-09-27T15:04:53.801Z,76.15
2022-09-27T15:07:22.455Z,76.28
2022-09-27T15:09:50.660Z,76.49
2022-09-27T15:12:23.418Z,76.53
2022-09-27T15:14:54.018Z,76.33
2022-09-27T15:17:21.873Z,76.40
2022-09-27T15:20:04.155Z,75.45
2022-09-27T15:22:43.965Z,76.04
2022-09-27T15:25:32.654Z,76.17
2022-09-27T15:28:20.561Z,75.40
2022-09-27T15:30:54.787Z,75.73
2022-09-27T15:33:25.068Z,75.88
2022-09-27T15:35:54.323Z,75.64
2022-09-27T15:38:26.275Z,76.04
2022-09-27T15:40:52.943Z,76.11
2022-09-27T15:43:36.008Z,76.29
2022-09-27T15:46:26.031Z,76.36
2022-09-27T15:49:18.137Z,76.41
2022-09-27T15:51:46.248Z,76.41
2022-09-27T15:54:13.277Z,76.44
2022-09-27T15:56:40.347Z,75.17
2022-09-27T15:59:09.401Z,75.23
2022-09-27T16:01:36.246Z,75.56
2022-09-27T16:04:02.955Z,74.76
2022-09-27T16:06:30.473Z,74.88
2022-09-27T16:08:57.302Z,74.90
2022-09-27T16:11:24.020Z,74.80
2022-09-27T16:13:53.008Z,74.62
2022-09-27T16:16:22.918Z,74.85
2022-09-27T16:18:50.104Z,74.85
2022-09-27T16:21:16.903Z,75.31
2022-09-27T16:23:43.762Z,75.09
2022-09-27T16:26:11.567Z,74.94
2022-09-27T16:28:38.340Z,74.75
2022-09-27T16:31:06.495Z,74.72
2022-09-27T16:33:33.871Z,74.58
2022-09-27T16:36:03.669Z,74.25
2022-09-27T16:38:30.469Z,74.45
2022-09-27T16:41:02.502Z,74.21
2022-09-27T16:43:31.963Z,74.16
2022-09-27T16:46:11.904Z,74.30
2022-09-27T16:48:39.529Z,74.25
2022-09-27T16:51:27.947Z,74.58
2022-09-27T16:53:54.656Z,74.68
2022-09-27T16:56:21.669Z,74.76
2022-09-27T16:58:48.344Z,74.93
2022-09-27T17:01:17.088Z,75.08
2022-09-27T17:03:45.539Z,75.30
2022-09-27T17:06:12.705Z,75.05
2022-09-27T17:08:39.440Z,75.34
2022-09-27T17:11:07.504Z,75.40
2022-09-27T17:13:34.330Z,75.38
2022-09-27T17:16:03.984Z,75.43
2022-09-27T17:18:31.027Z,75.36
2022-09-27T17:21:02.971Z,74.67
2022-09-27T17:23:33.567Z,74.76
2022-09-27T17:26:17.105Z,74.71
2022-09-27T17:28:44.035Z,74.47
2022-09-27T17:31:15.324Z,74.58
2022-09-27T17:33:45.335Z,74.66
2022-09-27T17:36:37.541Z,74.94
2022-09-27T17:39:05.252Z,74.79
2022-09-27T17:41:37.568Z,74.84
2022-09-27T17:44:07.440Z,75.11
2022-09-27T17:46:35.909Z,75.34
2022-09-27T17:49:21.932Z,75.44
2022-09-27T17:51:53.235Z,75.60
2022-09-27T17:54:23.436Z,75.49
2022-09-27T17:56:51.042Z,75.61
2022-09-27T17:59:18.280Z,75.45
2022-09-27T18:01:55.645Z,75.72
2022-09-27T18:04:26.045Z,76.04
2022-09-27T18:06:52.874Z,75.75
2022-09-27T18:09:19.881Z,75.99
2022-09-27T18:11:47.881Z,75.56
2022-09-27T18:14:15.345Z,75.58
2022-09-27T18:16:43.957Z,75.43
2022-09-27T18:19:16.910Z,75.53
2022-09-27T18:21:44.340Z,75.10
2022-09-27T18:24:11.997Z,75.01
2022-09-27T18:26:39.925Z,74.73
2022-09-27T18:29:10.261Z,75.02
2022-09-27T18:31:37.611Z,75.04
2022-09-27T18:34:05.316Z,74.50
2022-09-27T18:36:32.171Z,74.42
2022-09-27T18:39:03.477Z,74.14
2022-09-27T18:41:32.759Z,74.09
2022-09-27T18:44:01.805Z,74.29
2022-09-27T18:46:35.515Z,74.11
2022-09-27T18:49:07.949Z,74.57
2022-09-27T18:51:37.923Z,74.54
2022-09-27T18:54:07.284Z,74.24
2022-09-27T18:56:39.595Z,74.20
2022-09-27T18:59:08.928Z,74.23
2022-09-27T19:01:39.793Z,73.78
2022-09-27T19:04:10.683Z,73.85
2022-09-27T19:06:38.819Z,73.62
2022-09-27T19:09:06.812Z,73.77
2022-09-27T19:11:34.249Z,73.77
2022-09-27T19:14:01.755Z,73.94
2022-09-27T19:16:29.419Z,73.71
2022-09-27T19:18:56.291Z,74.00
2022-09-27T19:21:25.373Z,74.13
2022-09-27T19:23:52.514Z,74.25
2022-09-27T19:26:21.803Z,74.20
2022-09-27T19:28:49.776Z,74.12
2022-09-27T19:31:22.854Z,73.77
2022-09-27T19:33:49.933Z,74.22
2022-09-27T19:36:17.990Z,73.99
2022-09-27T19:38:45.586Z,74.36
2022-09-27T19:41:14.924Z,73.94
2022-09-27T19:43:42.064Z,73.98
2022-09-27T19:46:15.694Z,73.91
2022-09-27T19:48:43.652Z,73.53
2022-09-27T19:51:19.313Z,73.38
2022-09-27T19:53:46.372Z,73.04
2022-09-27T19:56:13.679Z,73.38
2022-09-27T19:58:42.258Z,73.16
2022-09-27T20:01:19.377Z,73.78
2022-09-27T20:03:46.862Z,73.34
2022-09-27T20:06:15.525Z,73.72
2022-09-27T20:08:42.858Z,73.43
2022-09-27T20:11:12.191Z,73.25
2022-09-27T20:13:39.629Z,73.23
2022-09-27T20:16:18.709Z,72.87
2022-09-27T20:18:47.604Z,72.65
2022-09-27T20:21:15.355Z,72.51
2022-09-27T20:23:42.579Z,72.65
2022-09-27T20:26:13.485Z,72.66
2022-09-27T20:28:44.631Z,72.55
2022-09-27T20:31:16.259Z,72.66
2022-09-27T20:33:46.897Z,73.24
2022-09-27T20:36:21.701Z,73.45
2022-09-27T20:38:50.616Z,73.78
2022-09-27T20:41:20.479Z,74.05
2022-09-27T20:43:48.705Z,74.19
2022-09-27T20:46:17.246Z,74.32
2022-09-27T20:48:45.142Z,74.71
2022-09-27T20:51:16.461Z,74.67
2022-09-27T20:53:45.193Z,74.63
2022-09-27T20:56:25.515Z,74.79
2022-09-27T20:58:53.804Z,74.90
2022-09-27T21:01:22.003Z,74.76
2022-09-27T21:03:53.303Z,74.82
2022-09-27T21:06:23.026Z,74.54
2022-09-27T21:08:50.731Z,74.16
2022-09-27T21:11:18.056Z,73.96
2022-09-27T21:13:45.682Z,74.20
2022-09-27T21:16:14.942Z,74.15
2022-09-27T21:18:42.005Z,74.18
2022-09-27T21:21:10.687Z,74.51
2022-09-27T21:23:43.460Z,74.69
2022-09-27T21:26:16.664Z,74.65
2022-09-27T21:28:44.477Z,74.91
2022-09-27T21:31:15.701Z,74.81
2022-09-27T21:33:51.346Z,75.10
2022-09-27T21:36:18.064Z,74.96
2022-09-27T21:38:44.745Z,74.91
2022-09-27T21:41:14.738Z,74.82
2022-09-27T21:43:42.000Z,74.83
2022-09-27T21:46:10.289Z,74.65
2022-09-27T21:48:38.819Z,74.47
2022-09-27T21:51:10.036Z,74.66
2022-09-27T21:53:38.405Z,74.68
2022-09-27T21:56:05.996Z,74.58
2022-09-27T21:58:37.664Z,74.23
2022-09-27T22:01:12.468Z,74.46
2022-09-27T22:03:40.384Z,74.29
2022-09-27T22:06:09.902Z,74.25
2022-09-27T22:08:36.835Z,74.18
2022-09-27T22:11:04.149Z,73.67
2022-09-27T22:13:30.975Z,73.59
2022-09-27T22:16:02.670Z,73.41
2022-09-27T22:18:29.424Z,73.62
2022-09-27T22:21:03.998Z,73.85
2022-09-27T22:23:31.227Z,74.25
2022-09-27T22:25:58.536Z,74.39
2022-09-27T22:28:26.064Z,74.31
2022-09-27T22:30:53.064Z,73.90
2022-09-27T22:33:19.769Z,73.90
2022-09-27T22:35:47.420Z,73.77
2022-09-27T22:38:14.358Z,73.59
2022-09-27T22:40:42.201Z,73.74
2022-09-27T22:43:08.980Z,74.05
2022-09-27T22:45:35.637Z,74.09
2022-09-27T22:48:02.326Z,74.08
2022-09-27T22:50:28.974Z,74.24
2022-09-27T22:52:55.636Z,74.21
2022-09-27T22:55:22.383Z,74.55
2022-09-27T22:57:49.053Z,74.56
2022-09-27T23:00:15.782Z,74.44
2022-09-27T23:02:42.475Z,74.73
2022-09-27T23:05:09.335Z,74.83
2022-09-27T23:07:35.967Z,74.97
2022-09-27T23:10:02.733Z,74.91
2022-09-27T23:12:29.430Z,75.08
2022-09-27T23:14:57.419Z,74.97
2022-09-27T23:17:24.118Z,75.00
2022-09-27T23:19:50.774Z,74.82
2022-09-27T23:22:17.445Z,74.69
2022-09-27T23:24:44.132Z,74.76
2022-09-27T23:27:29.483Z,74.59
2022-09-27T23:29:56.209Z,75.04
2022-09-27T23:32:22.858Z,74.48
2022-09-27T23:34:49.909Z,74.82
2022-09-27T23:37:16.564Z,75.01
2022-09-27T23:39:43.279Z,75.11
2022-09-27T23:42:10.055Z,75.23
2022-09-27T23:44:36.759Z,75.14
2022-09-27T23:47:04.368Z,75.35
2022-09-27T23:49:32.299Z,75.03
2022-09-27T23:52:00.813Z,75.38
2022-09-27T23:54:28.043Z,75.19
2022-09-27T23:56:54.789Z,75.06
2022-09-27T23:59:21.499Z,74.68
